HEPS

Port Said Airport

Airport
ICAO code
HEPS
IATA Code
PSD
Summary
ICAO Region
AFI
ICAO Territory
Location

Port Said, Ash Sharqiyah

Serving
Port Said
Elevation
8 ft
Coordinates
31° 16' 46" N , 32° 14' 24" E
Metar
HEPS 210400Z 35008KT 9999 SCT025 19/12 Q1015 NOSIG

Runways

Designator Length Width Surface Rops
10/28 2349 45 ASP No/No

Airport map

Aerial View

SKYbrary Partners:

Safety knowledge contributed by: